createdAt,value
2018-12-12T00:00:00.774Z,11.53
2018-12-12T00:02:28.208Z,11.40
2018-12-12T00:04:55.602Z,12.23
2018-12-12T00:07:23.255Z,13.57
2018-12-12T00:09:50.729Z,13.50
2018-12-12T00:12:18.107Z,12.03
2018-12-12T00:14:45.432Z,13.73
2018-12-12T00:17:12.835Z,10.13
2018-12-12T00:19:40.207Z,12.37
2018-12-12T00:22:07.578Z,11.57
2018-12-12T00:24:34.900Z,9.43
2018-12-12T00:27:02.308Z,10.30
2018-12-12T00:29:29.630Z,11.17
2018-12-12T00:31:56.982Z,18.13
2018-12-12T00:34:24.336Z,15.87
2018-12-12T00:36:51.713Z,9.37
2018-12-12T00:39:19.085Z,13.83
2018-12-12T00:41:46.465Z,12.37
2018-12-12T00:44:13.835Z,13.00
2018-12-12T00:46:41.507Z,14.43
2018-12-12T00:49:08.945Z,12.40
2018-12-12T00:51:36.531Z,14.27
2018-12-12T00:54:03.914Z,13.83
2018-12-12T00:56:31.212Z,13.00
2018-12-12T00:58:58.553Z,9.57
2018-12-12T01:01:25.948Z,14.50
2018-12-12T01:03:53.385Z,11.87
2018-12-12T01:06:20.722Z,12.80
2018-12-12T01:08:48.073Z,14.73
2018-12-12T01:11:20.889Z,11.73
2018-12-12T01:13:48.284Z,9.47
2018-12-12T01:16:15.707Z,9.47
2018-12-12T01:18:43.179Z,9.93
2018-12-12T01:21:10.526Z,8.53
2018-12-12T01:23:37.913Z,10.70
2018-12-12T01:26:05.268Z,9.70
2018-12-12T01:28:32.645Z,8.30
2018-12-12T01:30:59.982Z,7.77
2018-12-12T01:33:27.360Z,10.03
2018-12-12T01:35:54.705Z,9.37
2018-12-12T01:38:22.075Z,8.93
2018-12-12T01:40:49.466Z,8.77
2018-12-12T01:43:16.843Z,9.70
2018-12-12T01:45:44.221Z,9.37
2018-12-12T01:48:11.525Z,9.50
2018-12-12T01:50:38.888Z,12.10
2018-12-12T01:53:07.628Z,4.97
2018-12-12T01:55:35.056Z,10.72
2018-12-12T01:58:02.420Z,11.78
2018-12-12T02:00:29.795Z,6.73
2018-12-12T02:02:57.174Z,10.90
2018-12-12T02:05:24.581Z,12.77
2018-12-12T02:07:52.233Z,15.10
2018-12-12T02:10:19.640Z,10.47
2018-12-12T02:12:57.028Z,8.90
2018-12-12T02:15:24.364Z,10.30
2018-12-12T02:17:51.772Z,11.30
2018-12-12T02:20:19.162Z,9.57
2018-12-12T02:22:46.510Z,7.53
2018-12-12T02:25:13.874Z,12.67
2018-12-12T02:27:41.279Z,10.63
2018-12-12T02:30:08.617Z,11.57
2018-12-12T02:32:36.029Z,10.47
2018-12-12T02:35:03.569Z,12.53
2018-12-12T02:37:30.995Z,7.20
2018-12-12T02:42:36.730Z,6.97
2018-12-12T02:45:04.196Z,10.40
2018-12-12T02:47:31.614Z,13.03
2018-12-12T02:49:58.970Z,9.57
2018-12-12T02:52:26.360Z,14.17
2018-12-12T02:54:53.730Z,12.27
2018-12-12T02:57:21.111Z,7.50
2018-12-12T02:59:48.488Z,13.07
2018-12-12T03:02:15.828Z,6.27
2018-12-12T03:04:43.324Z,7.50
2018-12-12T03:07:10.699Z,7.20
2018-12-12T03:09:38.080Z,6.77
2018-12-12T03:12:05.432Z,7.10
2018-12-12T03:14:32.785Z,6.07
2018-12-12T03:17:00.153Z,6.90
2018-12-12T03:19:27.515Z,14.07
2018-12-12T03:21:54.868Z,9.73
2018-12-12T03:24:22.203Z,9.60
2018-12-12T03:26:49.596Z,8.40
2018-12-12T03:29:17.081Z,7.50
2018-12-12T03:31:44.452Z,9.83
2018-12-12T03:34:11.746Z,7.70
2018-12-12T03:36:39.100Z,10.37
2018-12-12T03:39:07.200Z,9.73
2018-12-12T03:41:34.582Z,11.97
2018-12-12T03:44:01.965Z,9.30
2018-12-12T03:46:29.425Z,11.17
2018-12-12T03:48:56.766Z,9.80
2018-12-12T03:51:24.138Z,9.70
2018-12-12T03:53:51.462Z,13.47
2018-12-12T03:56:18.861Z,12.90
2018-12-12T03:58:46.230Z,10.67
2018-12-12T04:01:13.703Z,8.93
2018-12-12T04:03:48.956Z,8.57
2018-12-12T04:06:16.772Z,9.37
2018-12-12T04:08:44.173Z,14.67
2018-12-12T04:11:11.514Z,11.00
2018-12-12T04:13:38.914Z,9.50
2018-12-12T04:16:06.296Z,10.33
2018-12-12T04:18:33.655Z,11.30
2018-12-12T04:21:00.972Z,7.93
2018-12-12T04:23:28.379Z,13.77
2018-12-12T04:25:55.828Z,9.97
2018-12-12T04:28:23.199Z,8.93
2018-12-12T04:30:50.561Z,11.93
2018-12-12T04:33:17.938Z,9.40
2018-12-12T04:35:45.270Z,10.33
2018-12-12T04:38:12.695Z,12.13
2018-12-12T04:40:40.044Z,11.33
2018-12-12T04:43:07.486Z,11.83
2018-12-12T04:45:34.832Z,18.43
2018-12-12T04:48:02.178Z,15.67
2018-12-12T04:50:29.568Z,14.47
2018-12-12T04:52:56.915Z,12.60
2018-12-12T04:55:24.290Z,14.60
2018-12-12T04:57:51.750Z,12.77
2018-12-12T05:00:19.221Z,12.13
2018-12-12T05:02:47.261Z,14.77
2018-12-12T05:05:14.646Z,12.13
2018-12-12T05:07:42.025Z,12.30
2018-12-12T05:10:09.432Z,13.87
2018-12-12T05:12:36.924Z,16.30
2018-12-12T05:15:04.866Z,12.30
2018-12-12T05:17:32.220Z,12.40
2018-12-12T05:19:59.629Z,15.63
2018-12-12T05:22:26.974Z,12.77
2018-12-12T05:24:54.381Z,13.37
2018-12-12T05:27:21.780Z,13.80
2018-12-12T05:29:49.155Z,11.77
2018-12-12T05:32:16.518Z,11.77
2018-12-12T05:34:43.858Z,13.85
2018-12-12T05:37:11.264Z,12.43
2018-12-12T05:39:38.609Z,10.60
2018-12-12T05:42:06.025Z,11.80
2018-12-12T05:44:33.409Z,12.93
2018-12-12T05:47:00.826Z,13.23
2018-12-12T05:49:28.194Z,15.93
2018-12-12T05:51:55.599Z,17.73
2018-12-12T05:54:23.010Z,13.43
2018-12-12T05:56:52.491Z,15.47
2018-12-12T05:59:19.792Z,13.73
2018-12-12T06:01:47.154Z,15.60
2018-12-12T06:04:14.537Z,16.33
2018-12-12T06:06:41.891Z,14.97
2018-12-12T06:09:09.288Z,17.00
2018-12-12T06:11:36.677Z,12.73
2018-12-12T06:14:04.076Z,14.30
2018-12-12T06:16:31.495Z,13.20
2018-12-12T06:18:58.922Z,15.27
2018-12-12T06:21:26.336Z,18.47
2018-12-12T06:23:53.729Z,24.63
2018-12-12T06:26:21.099Z,21.00
2018-12-12T06:28:48.500Z,17.00
2018-12-12T06:31:15.874Z,24.93
2018-12-12T06:33:43.891Z,24.70
2018-12-12T06:36:11.271Z,22.97
2018-12-12T06:38:38.688Z,29.13
2018-12-12T06:41:06.016Z,22.23
2018-12-12T06:43:33.466Z,20.77
2018-12-12T06:46:00.809Z,16.50
2018-12-12T06:48:28.216Z,13.03
2018-12-12T06:50:55.586Z,14.67
2018-12-12T06:53:22.956Z,10.73
2018-12-12T06:55:50.376Z,15.13
2018-12-12T06:58:17.775Z,11.80
2018-12-12T07:00:45.149Z,12.57
2018-12-12T07:03:12.599Z,20.20
2018-12-12T07:05:40.004Z,27.87
2018-12-12T07:08:07.366Z,40.17
2018-12-12T07:10:34.736Z,31.20
2018-12-12T07:13:02.073Z,21.63
2018-12-12T07:15:29.476Z,18.67
2018-12-12T07:17:56.852Z,36.03
2018-12-12T07:20:24.240Z,439.27
2018-12-12T07:22:51.599Z,493.30
2018-12-12T07:25:19.009Z,224.43
2018-12-12T07:27:46.362Z,215.10
2018-12-12T07:30:13.735Z,213.40
2018-12-12T07:32:41.261Z,238.27
2018-12-12T07:35:08.670Z,79.80
2018-12-12T07:37:36.078Z,119.23
2018-12-12T07:40:03.765Z,111.90
2018-12-12T07:42:31.186Z,63.93
2018-12-12T07:44:58.610Z,44.00
2018-12-12T07:47:25.997Z,22.77
2018-12-12T07:49:53.398Z,23.33
2018-12-12T07:52:20.802Z,22.40
2018-12-12T07:54:48.180Z,23.00
2018-12-12T07:57:15.556Z,19.87
2018-12-12T07:59:42.972Z,16.63
2018-12-12T08:02:10.331Z,19.47
2018-12-12T08:04:37.642Z,16.80
2018-12-12T08:07:05.088Z,14.90
2018-12-12T08:09:32.479Z,15.77
2018-12-12T08:11:59.884Z,18.87
2018-12-12T08:14:27.285Z,21.40
2018-12-12T08:16:54.655Z,22.60
2018-12-12T08:19:21.989Z,25.00
2018-12-12T08:21:49.395Z,27.50
2018-12-12T08:24:16.785Z,33.70
2018-12-12T08:26:44.236Z,26.87
2018-12-12T08:29:11.743Z,22.17
2018-12-12T08:31:39.156Z,24.67
2018-12-12T08:34:06.576Z,31.43
2018-12-12T08:36:33.942Z,32.83
2018-12-12T08:39:01.349Z,31.80
2018-12-12T08:41:28.731Z,36.00
2018-12-12T08:43:56.182Z,53.03
2018-12-12T08:46:23.561Z,35.27
2018-12-12T08:48:51.029Z,32.40
2018-12-12T08:51:18.447Z,27.27
2018-12-12T08:53:45.839Z,28.27
2018-12-12T08:56:13.224Z,31.77
2018-12-12T08:58:40.623Z,25.67
2018-12-12T09:01:07.994Z,50.07
2018-12-12T09:03:35.400Z,41.50
2018-12-12T09:06:02.741Z,28.77
2018-12-12T09:08:30.166Z,26.17
2018-12-12T09:10:57.522Z,17.87
2018-12-12T09:13:24.902Z,42.43
2018-12-12T09:15:52.318Z,61.07
2018-12-12T09:18:19.726Z,64.90
2018-12-12T09:20:47.114Z,30.50
2018-12-12T09:23:14.480Z,40.13
2018-12-12T09:25:41.940Z,39.67
2018-12-12T09:28:09.316Z,31.83
2018-12-12T09:30:36.721Z,41.97
2018-12-12T09:33:04.062Z,37.20
2018-12-12T09:35:31.553Z,22.83
2018-12-12T09:37:58.945Z,25.87
2018-12-12T09:40:26.344Z,20.53
2018-12-12T09:42:53.814Z,19.90
2018-12-12T09:45:21.813Z,26.87
2018-12-12T09:47:49.545Z,28.37
2018-12-12T09:50:17.153Z,27.83
2018-12-12T09:52:44.565Z,49.23
2018-12-12T09:55:11.940Z,26.53
2018-12-12T09:57:39.338Z,20.60
2018-12-12T10:00:06.791Z,16.10
2018-12-12T10:02:34.200Z,18.20
2018-12-12T10:05:01.639Z,18.63
2018-12-12T10:07:29.088Z,19.33
2018-12-12T10:09:56.548Z,19.20
2018-12-12T10:12:23.990Z,20.10
2018-12-12T10:14:51.420Z,18.90
2018-12-12T10:17:18.806Z,21.20
2018-12-12T10:19:46.196Z,22.97
2018-12-12T10:22:13.569Z,23.77
2018-12-12T10:24:40.976Z,21.37
2018-12-12T10:27:08.376Z,24.17
2018-12-12T10:29:35.827Z,18.00
2018-12-12T10:32:03.259Z,18.17
2018-12-12T10:34:30.630Z,20.17
2018-12-12T10:36:58.046Z,16.17
2018-12-12T10:39:25.452Z,17.20
2018-12-12T10:41:52.828Z,15.43
2018-12-12T10:44:20.227Z,16.13
2018-12-12T10:46:47.603Z,18.23
2018-12-12T10:49:15.046Z,19.63
2018-12-12T10:51:42.447Z,16.33
2018-12-12T10:54:09.881Z,15.13
2018-12-12T10:56:37.292Z,14.17
2018-12-12T10:59:04.751Z,17.63
2018-12-12T11:01:37.810Z,15.47
2018-12-12T11:04:05.286Z,16.33
2018-12-12T11:06:32.698Z,14.90
2018-12-12T11:09:00.054Z,19.67
2018-12-12T11:11:27.475Z,16.60
2018-12-12T11:13:54.861Z,12.83
2018-12-12T11:16:22.263Z,12.70
2018-12-12T11:18:49.651Z,15.13
2018-12-12T11:21:17.162Z,16.73
2018-12-12T11:23:44.592Z,20.80
2018-12-12T11:26:12.042Z,24.20
2018-12-12T11:28:39.448Z,23.73
2018-12-12T11:31:06.900Z,24.60
2018-12-12T11:33:34.311Z,24.43
2018-12-12T11:36:01.731Z,44.57
2018-12-12T11:38:29.086Z,68.27
2018-12-12T11:40:56.517Z,30.40
2018-12-12T11:43:23.911Z,30.77
2018-12-12T11:45:51.325Z,28.17
2018-12-12T11:48:18.750Z,28.23
2018-12-12T11:50:46.107Z,25.00
2018-12-12T11:53:13.540Z,26.43
2018-12-12T11:55:40.903Z,24.70
2018-12-12T11:58:08.271Z,26.33
2018-12-12T12:00:35.656Z,22.00
2018-12-12T12:03:03.079Z,23.73
2018-12-12T12:05:30.565Z,23.60
2018-12-12T12:07:57.989Z,21.30
2018-12-12T12:10:25.352Z,21.97
2018-12-12T12:12:52.757Z,20.00
2018-12-12T12:15:20.130Z,17.73
2018-12-12T12:17:47.496Z,27.17
2018-12-12T12:20:14.921Z,27.07
2018-12-12T12:22:42.372Z,33.80
2018-12-12T12:25:09.787Z,31.07
2018-12-12T12:27:37.132Z,30.90
2018-12-12T12:30:05.315Z,49.57
2018-12-12T12:32:32.716Z,24.63
2018-12-12T12:35:00.234Z,22.00
2018-12-12T12:37:27.717Z,18.83
2018-12-12T12:39:55.087Z,19.83
2018-12-12T12:42:22.521Z,22.73
2018-12-12T12:44:49.950Z,19.87
2018-12-12T12:47:17.341Z,30.20
2018-12-12T12:49:44.806Z,28.73
2018-12-12T12:52:12.168Z,22.53
2018-12-12T12:54:39.567Z,21.50
2018-12-12T12:57:06.957Z,24.00
2018-12-12T12:59:34.412Z,24.33
2018-12-12T13:02:01.822Z,21.63
2018-12-12T13:04:29.218Z,16.30
2018-12-12T13:06:56.632Z,18.70
2018-12-12T13:09:23.988Z,25.70
2018-12-12T13:11:51.428Z,20.73
2018-12-12T13:14:18.856Z,15.90
2018-12-12T13:16:46.250Z,17.23
2018-12-12T13:19:13.631Z,18.80
2018-12-12T13:21:41.025Z,16.73
2018-12-12T13:24:08.426Z,25.50
2018-12-12T13:26:35.861Z,24.90
2018-12-12T13:29:03.227Z,20.37
2018-12-12T13:31:30.667Z,18.00
2018-12-12T13:33:58.046Z,15.90
2018-12-12T13:36:25.482Z,16.00
2018-12-12T13:38:52.828Z,17.43
2018-12-12T13:41:20.225Z,15.17
2018-12-12T13:43:47.703Z,16.27
2018-12-12T13:46:15.108Z,18.17
2018-12-12T13:48:42.534Z,19.00
2018-12-12T13:51:09.919Z,20.07
2018-12-12T13:53:37.364Z,21.97
2018-12-12T13:56:04.722Z,19.57
2018-12-12T13:58:32.204Z,20.17
2018-12-12T14:00:59.567Z,18.57
2018-12-12T14:03:26.995Z,19.97
2018-12-12T14:05:54.383Z,33.80
2018-12-12T14:08:21.822Z,28.43
2018-12-12T14:10:49.227Z,23.57
2018-12-12T14:13:16.605Z,26.60
2018-12-12T14:15:44.022Z,25.37
2018-12-12T14:18:11.424Z,32.20
2018-12-12T14:20:38.863Z,31.60
2018-12-12T14:23:06.432Z,33.37
2018-12-12T14:25:33.792Z,27.90
2018-12-12T14:28:01.167Z,27.17
2018-12-12T14:30:28.592Z,27.60
2018-12-12T14:32:55.997Z,28.37
2018-12-12T14:35:23.439Z,30.33
2018-12-12T14:37:50.798Z,23.53
2018-12-12T14:40:18.211Z,31.90
2018-12-12T14:42:45.633Z,25.53
2018-12-12T14:45:13.047Z,25.90
2018-12-12T14:47:40.427Z,25.83
2018-12-12T14:50:08.006Z,28.97
2018-12-12T14:52:35.385Z,25.87
2018-12-12T14:55:02.789Z,23.87
2018-12-12T14:57:30.230Z,25.83
2018-12-12T14:59:57.657Z,26.40
2018-12-12T15:02:25.088Z,43.03
2018-12-12T15:04:52.563Z,51.77
2018-12-12T15:07:20.023Z,57.17
2018-12-12T15:09:47.402Z,36.10
2018-12-12T15:12:14.832Z,29.93
2018-12-12T15:14:42.367Z,35.83
2018-12-12T15:17:09.852Z,36.40
2018-12-12T15:19:37.227Z,32.13
2018-12-12T15:22:04.907Z,30.63
2018-12-12T15:24:32.295Z,33.07
2018-12-12T15:26:59.707Z,33.90
2018-12-12T15:29:27.087Z,28.80
2018-12-12T15:31:54.617Z,29.53
2018-12-12T15:34:22.044Z,28.37
2018-12-12T15:36:49.414Z,32.00
2018-12-12T15:39:16.851Z,26.73
2018-12-12T15:41:44.274Z,29.57
2018-12-12T15:44:11.714Z,33.40
2018-12-12T15:46:39.092Z,31.17
2018-12-12T15:49:06.492Z,43.80
2018-12-12T15:51:33.987Z,41.23
2018-12-12T15:54:01.391Z,47.03
2018-12-12T15:56:28.745Z,35.87
2018-12-12T15:58:56.214Z,32.77
2018-12-12T16:01:23.577Z,37.87
2018-12-12T16:03:50.966Z,38.90
2018-12-12T16:06:18.357Z,34.90
2018-12-12T16:08:45.778Z,34.80
2018-12-12T16:11:13.194Z,35.10
2018-12-12T16:13:40.629Z,43.53
2018-12-12T16:16:08.032Z,41.00
2018-12-12T16:18:35.504Z,46.07
2018-12-12T16:21:03.050Z,35.43
2018-12-12T16:23:30.408Z,37.33
2018-12-12T16:25:57.851Z,34.40
2018-12-12T16:28:25.263Z,39.40
2018-12-12T16:30:52.730Z,33.97
2018-12-12T16:33:20.136Z,38.67
2018-12-12T16:35:47.594Z,34.37
2018-12-12T16:38:14.977Z,33.03
2018-12-12T16:40:42.385Z,39.80
2018-12-12T16:43:09.824Z,35.37
2018-12-12T16:45:37.280Z,38.07
2018-12-12T16:48:04.784Z,39.77
2018-12-12T16:50:32.209Z,40.73
2018-12-12T16:52:59.642Z,46.13
2018-12-12T16:55:27.035Z,40.43
2018-12-12T16:57:54.417Z,40.83
2018-12-12T17:00:21.856Z,42.30
2018-12-12T17:02:49.292Z,56.03
2018-12-12T17:05:16.748Z,52.43
2018-12-12T17:07:44.160Z,50.90
2018-12-12T17:10:11.539Z,42.20
2018-12-12T17:12:41.082Z,40.43
2018-12-12T17:15:08.637Z,53.50
2018-12-12T17:17:36.105Z,69.77
2018-12-12T17:20:04.285Z,78.03
2018-12-12T17:22:31.772Z,57.40
2018-12-12T17:24:59.188Z,43.90
2018-12-12T17:27:26.636Z,69.00
2018-12-12T17:29:54.053Z,52.27
2018-12-12T17:32:21.443Z,44.43
2018-12-12T17:34:48.850Z,50.83
2018-12-12T17:37:16.300Z,47.73
2018-12-12T17:42:22.604Z,50.23
2018-12-12T17:44:50.005Z,41.00
2018-12-12T17:47:17.523Z,40.07
2018-12-12T17:49:44.948Z,46.63
2018-12-12T17:52:12.314Z,52.07
2018-12-12T17:54:39.743Z,46.73
2018-12-12T17:57:07.084Z,50.27
2018-12-12T17:59:34.498Z,48.30
2018-12-12T18:02:02.055Z,87.20
2018-12-12T18:04:29.844Z,96.93
2018-12-12T18:06:57.225Z,57.57
2018-12-12T18:09:24.704Z,46.77
2018-12-12T18:11:52.137Z,47.67
2018-12-12T18:14:20.548Z,46.97
2018-12-12T18:16:47.953Z,53.83
2018-12-12T18:19:15.359Z,57.03
2018-12-12T18:21:42.733Z,50.80
2018-12-12T18:24:10.149Z,50.47
2018-12-12T18:26:37.620Z,50.33
2018-12-12T18:29:05.014Z,47.13
2018-12-12T18:31:32.507Z,39.70
2018-12-12T18:33:59.859Z,35.40
2018-12-12T18:36:27.289Z,32.50
2018-12-12T18:38:54.684Z,49.63
2018-12-12T18:41:22.095Z,51.03
2018-12-12T18:43:49.497Z,36.20
2018-12-12T18:46:16.904Z,25.90
2018-12-12T18:48:44.355Z,23.47
2018-12-12T18:51:11.824Z,22.07
2018-12-12T18:53:39.223Z,20.33
2018-12-12T18:56:06.647Z,23.80
2018-12-12T18:58:34.080Z,21.00
2018-12-12T19:01:01.473Z,20.67
2018-12-12T19:03:28.939Z,22.53
2018-12-12T19:05:56.349Z,20.10
2018-12-12T19:08:23.827Z,22.73
2018-12-12T19:10:51.245Z,21.37
2018-12-12T19:13:18.645Z,18.93
2018-12-12T19:15:46.023Z,22.63
2018-12-12T19:18:13.476Z,21.90
2018-12-12T19:20:40.896Z,18.43
2018-12-12T19:23:08.345Z,18.93
2018-12-12T19:25:35.735Z,15.03
2018-12-12T19:28:03.223Z,14.83
2018-12-12T19:30:30.665Z,14.10
2018-12-12T19:32:58.069Z,14.70
2018-12-12T19:35:25.510Z,11.93
2018-12-12T19:37:52.976Z,9.17
2018-12-12T19:40:20.378Z,8.50
2018-12-12T19:42:47.774Z,9.57
2018-12-12T19:45:15.256Z,7.83
2018-12-12T19:47:42.679Z,9.77
2018-12-12T19:50:10.297Z,6.77
2018-12-12T19:52:37.714Z,6.80
2018-12-12T19:55:05.268Z,6.47
2018-12-12T19:57:32.675Z,7.77
2018-12-12T20:00:00.130Z,9.00
2018-12-12T20:02:27.542Z,6.40
2018-12-12T20:04:55.034Z,5.00
2018-12-12T20:07:22.450Z,5.90
2018-12-12T20:09:49.901Z,7.17
2018-12-12T20:12:17.284Z,12.83
2018-12-12T20:14:44.715Z,9.47
2018-12-12T20:17:12.104Z,7.03
2018-12-12T20:19:39.541Z,7.27
2018-12-12T20:22:06.957Z,7.63
2018-12-12T20:24:34.349Z,7.17
2018-12-12T20:27:01.733Z,7.07
2018-12-12T20:29:29.127Z,7.23
2018-12-12T20:31:57.551Z,7.57
2018-12-12T20:34:24.996Z,4.77
2018-12-12T20:36:52.816Z,8.67
2018-12-12T20:39:20.224Z,5.83
2018-12-12T20:41:47.690Z,6.40
2018-12-12T20:44:16.555Z,6.40
2018-12-12T20:46:44.129Z,6.57
2018-12-12T20:49:11.506Z,7.00
2018-12-12T20:51:43.890Z,6.00
2018-12-12T20:54:15.335Z,6.67
2018-12-12T20:56:46.994Z,5.40
2018-12-12T20:59:19.095Z,7.33
2018-12-12T21:01:46.695Z,6.10
2018-12-12T21:04:14.145Z,7.57
2018-12-12T21:06:41.599Z,6.13
2018-12-12T21:09:09.054Z,7.67
2018-12-12T21:11:36.464Z,8.13
2018-12-12T21:14:03.920Z,6.83
2018-12-12T21:16:31.363Z,7.73
2018-12-12T21:18:58.828Z,9.97
2018-12-12T21:21:26.250Z,9.03
2018-12-12T21:23:53.674Z,7.20
2018-12-12T21:26:21.395Z,9.57
2018-12-12T21:28:48.819Z,7.87
2018-12-12T21:31:16.246Z,8.63
2018-12-12T21:33:43.669Z,8.70
2018-12-12T21:36:11.038Z,7.80
2018-12-12T21:38:38.597Z,6.83
2018-12-12T21:41:05.992Z,7.83
2018-12-12T21:43:33.426Z,8.20
2018-12-12T21:46:01.376Z,7.83
2018-12-12T21:48:28.877Z,10.10
2018-12-12T21:50:56.301Z,6.87
2018-12-12T21:53:23.735Z,7.40
2018-12-12T21:58:29.119Z,8.57
2018-12-12T22:00:56.540Z,8.47
2018-12-12T22:03:23.941Z,7.13
2018-12-12T22:05:51.351Z,7.93
2018-12-12T22:08:18.754Z,10.50
2018-12-12T22:10:46.156Z,8.13
2018-12-12T22:13:13.599Z,7.37
2018-12-12T22:15:41.003Z,8.03
2018-12-12T22:18:08.359Z,8.50
2018-12-12T22:20:35.745Z,9.53
2018-12-12T22:23:03.130Z,10.60
2018-12-12T22:25:30.479Z,8.80
2018-12-12T22:27:57.854Z,9.40
2018-12-12T22:30:25.258Z,12.20
2018-12-12T22:32:52.690Z,10.97
2018-12-12T22:35:20.091Z,9.57
2018-12-12T22:37:47.443Z,10.00
2018-12-12T22:40:14.798Z,11.00
2018-12-12T22:42:42.260Z,9.63
2018-12-12T22:45:09.945Z,9.33
2018-12-12T22:47:37.319Z,10.17
2018-12-12T22:50:05.116Z,9.60
2018-12-12T22:52:32.524Z,10.93
2018-12-12T22:54:59.901Z,10.67
2018-12-12T22:57:27.378Z,11.50
2018-12-12T22:59:54.844Z,12.13
2018-12-12T23:02:22.500Z,11.27
2018-12-12T23:04:50.220Z,11.17
2018-12-12T23:07:18.240Z,10.40
2018-12-12T23:09:45.570Z,11.23
2018-12-12T23:12:12.964Z,12.63
2018-12-12T23:14:40.903Z,15.00
2018-12-12T23:17:08.303Z,10.60
2018-12-12T23:19:35.793Z,11.37
2018-12-12T23:22:03.244Z,13.70
2018-12-12T23:24:31.049Z,11.43
2018-12-12T23:26:58.424Z,10.53
2018-12-12T23:29:25.908Z,12.00
2018-12-12T23:31:53.257Z,9.27
2018-12-12T23:34:20.686Z,11.07
2018-12-12T23:36:48.029Z,10.40
2018-12-12T23:39:15.419Z,10.50
2018-12-12T23:41:42.732Z,9.80
2018-12-12T23:44:10.094Z,12.77
2018-12-12T23:46:37.455Z,10.17
2018-12-12T23:49:04.829Z,10.83
2018-12-12T23:51:32.185Z,15.00
2018-12-12T23:53:59.543Z,12.97
2018-12-12T23:56:28.273Z,11.40
2018-12-12T23:58:55.654Z,11.47
